Mississippi River (Missouri), Chester (07020500)

StateMissouriLatestUnknown (94900 cfs)
RiverMississippi RiverRatingObservedEstimated
Updated2022-09-25 23:00 (6 minutes ago)Flood - The river is flooding. Obstacles can be treacherous or deadly. The river should be avoided at this stage for casual trips and definitely for the inexperienced. Trips should be attempted only with protective gear and equipment.Flood(none)(none)
Discharge94900 cfs (median: 125000 cfs)High - The river is high and potentially dangerous, especially for the young and / or inexperienced. Normal stream obstacles are sometimes difficult to navigate. Extended distances can be attempted, but canoe travel may not be advisable.High(none)(none)
Height3.04 feetGood - Conditions are ideal for a canoe or kayak. Boats typically will drag on fewer than one-quarter of riffles, if at all, and portages are unnecessary or rare. Normal float lengths can be attempted without a problem.Good(none)(none)
TrendFalling (falling over 24 hours)Low - River is low but can still be floated. Some riffles are okay but most come with significant dragging and might need a portage. Float lengths should be reduced to accommodate low flow, dragging, and portages.Low(none)(none)
USGSExternal icon USGS Site (External icon Duck Duck Go Maps)Poor - River is too low to float comfortably. Most or all riffles will drag or must be portaged and some obstacles (such as slick shelf rock) cause undue problems. Avoid the river at this stage for casual paddling trips.Poor(none)(none)

Trending Data

Plot Image

Trips for Mississippi River (Missouri), Chester (07020500)

DateStartEndDistanceConditionDischargeHeightFishingDetails

A total of 0 rows are displayed.

Condition Descriptions

Fishing Conditions

Fish Species

Notes

Classic Trip List

The classic River Trips application is still available for use. It is updated with the new system using a data retrofit. It is no longer maintained. The original River Trips application is no longer updated (as of 1 Dec 2016) but can be checked for errors or for the condition of the data before it was converted to the new system.

Gauge Data Table

ObservationHeightDischargeMaximum
Discharge
Minimum
Discharge
Mean
Discharge
P05P10P20P25P50
(Median)
P75P80P90P95
2022-09-25 23:00 3.04 94900 642000 (1993) 66000 (1976) 162000 71400 81700 96200 101000 125000 175000 193000 332000 401000
2022-09-25 22:30 3.07 95100 642000 (1993) 66000 (1976) 162000 71400 81700 96200 101000 125000 175000 193000 332000 401000
2022-09-25 22:00 3.09 95300 642000 (1993) 66000 (1976) 162000 71400 81700 96200 101000 125000 175000 193000 332000 401000
2022-09-25 21:30 3.09 95300 642000 (1993) 66000 (1976) 162000 71400 81700 96200 101000 125000 175000 193000 332000 401000
2022-09-25 21:00 3.12 95500 642000 (1993) 66000 (1976) 162000 71400 81700 96200 101000 125000 175000 193000 332000 401000
2022-09-25 20:30 3.15 95700 642000 (1993) 66000 (1976) 162000 71400 81700 96200 101000 125000 175000 193000 332000 401000
2022-09-25 20:00 3.18 96000 642000 (1993) 66000 (1976) 162000 71400 81700 96200 101000 125000 175000 193000 332000 401000
2022-09-25 19:30 3.21 96200 642000 (1993) 66000 (1976) 162000 71400 81700 96200 101000 125000 175000 193000 332000 401000
2022-09-25 19:00 3.23 96400 642000 (1993) 66000 (1976) 162000 71400 81700 96200 101000 125000 175000 193000 332000 401000
2022-09-25 18:30 3.24 96400 642000 (1993) 66000 (1976) 162000 71400 81700 96200 101000 125000 175000 193000 332000 401000
2022-09-25 18:00 3.08 95200 642000 (1993) 66000 (1976) 162000 71400 81700 96200 101000 125000 175000 193000 332000 401000
2022-09-25 17:30 3.20 96100 642000 (1993) 66000 (1976) 162000 71400 81700 96200 101000 125000 175000 193000 332000 401000
2022-09-25 17:00 3.18 96000 642000 (1993) 66000 (1976) 162000 71400 81700 96200 101000 125000 175000 193000 332000 401000
2022-09-25 16:30 3.17 95900 642000 (1993) 66000 (1976) 162000 71400 81700 96200 101000 125000 175000 193000 332000 401000
2022-09-25 16:00 3.17 95900 642000 (1993) 66000 (1976) 162000 71400 81700 96200 101000 125000 175000 193000 332000 401000
2022-09-25 15:30 3.18 96000 642000 (1993) 66000 (1976) 162000 71400 81700 96200 101000 125000 175000 193000 332000 401000
2022-09-25 15:00 3.15 95700 642000 (1993) 66000 (1976) 162000 71400 81700 96200 101000 125000 175000 193000 332000 401000
2022-09-25 14:30 3.15 95700 642000 (1993) 66000 (1976) 162000 71400 81700 96200 101000 125000 175000 193000 332000 401000
2022-09-25 14:00 3.14 95600 642000 (1993) 66000 (1976) 162000 71400 81700 96200 101000 125000 175000 193000 332000 401000
2022-09-25 13:30 3.13 95600 642000 (1993) 66000 (1976) 162000 71400 81700 96200 101000 125000 175000 193000 332000 401000
2022-09-25 13:00 3.12 95500 642000 (1993) 66000 (1976) 162000 71400 81700 96200 101000 125000 175000 193000 332000 401000
2022-09-25 12:30 3.11 95400 642000 (1993) 66000 (1976) 162000 71400 81700 96200 101000 125000 175000 193000 332000 401000
2022-09-25 12:00 3.06 95000 642000 (1993) 66000 (1976) 162000 71400 81700 96200 101000 125000 175000 193000 332000 401000
2022-09-25 11:30 3.08 95200 642000 (1993) 66000 (1976) 162000 71400 81700 96200 101000 125000 175000 193000 332000 401000
2022-09-25 11:00 3.04 94900 642000 (1993) 66000 (1976) 162000 71400 81700 96200 101000 125000 175000 193000 332000 401000
2022-09-25 10:30 3.05 94900 642000 (1993) 66000 (1976) 162000 71400 81700 96200 101000 125000 175000 193000 332000 401000
2022-09-25 10:00 3.04 94900 642000 (1993) 66000 (1976) 162000 71400 81700 96200 101000 125000 175000 193000 332000 401000
2022-09-25 09:30 3.02 94700 642000 (1993) 66000 (1976) 162000 71400 81700 96200 101000 125000 175000 193000 332000 401000
2022-09-25 09:00 3.01 94600 642000 (1993) 66000 (1976) 162000 71400 81700 96200 101000 125000 175000 193000 332000 401000
2022-09-25 08:30 3.05 94900 642000 (1993) 66000 (1976) 162000 71400 81700 96200 101000 125000 175000 193000 332000 401000
2022-09-25 08:00 3.03 94800 642000 (1993) 66000 (1976) 162000 71400 81700 96200 101000 125000 175000 193000 332000 401000
2022-09-25 07:30 3.02 94700 642000 (1993) 66000 (1976) 162000 71400 81700 96200 101000 125000 175000 193000 332000 401000
2022-09-25 07:00 3.03 94800 642000 (1993) 66000 (1976) 162000 71400 81700 96200 101000 125000 175000 193000 332000 401000
2022-09-25 06:30 3.02 94700 642000 (1993) 66000 (1976) 162000 71400 81700 96200 101000 125000 175000 193000 332000 401000
2022-09-25 06:00 3.04 94900 642000 (1993) 66000 (1976) 162000 71400 81700 96200 101000 125000 175000 193000 332000 401000
2022-09-25 05:30 3.06 95000 642000 (1993) 66000 (1976) 162000 71400 81700 96200 101000 125000 175000 193000 332000 401000
2022-09-25 05:00 3.06 95000 642000 (1993) 66000 (1976) 162000 71400 81700 96200 101000 125000 175000 193000 332000 401000
2022-09-25 04:30 3.07 95100 642000 (1993) 66000 (1976) 162000 71400 81700 96200 101000 125000 175000 193000 332000 401000
2022-09-25 04:00 3.07 95100 642000 (1993) 66000 (1976) 162000 71400 81700 96200 101000 125000 175000 193000 332000 401000
2022-09-25 03:30 3.11 95400 642000 (1993) 66000 (1976) 162000 71400 81700 96200 101000 125000 175000 193000 332000 401000
2022-09-25 03:00 3.12 95500 642000 (1993) 66000 (1976) 162000 71400 81700 96200 101000 125000 175000 193000 332000 401000
2022-09-25 02:30 3.13 95600 642000 (1993) 66000 (1976) 162000 71400 81700 96200 101000 125000 175000 193000 332000 401000
2022-09-25 02:00 3.14 95600 642000 (1993) 66000 (1976) 162000 71400 81700 96200 101000 125000 175000 193000 332000 401000
2022-09-25 01:30 3.17 95900 642000 (1993) 66000 (1976) 162000 71400 81700 96200 101000 125000 175000 193000 332000 401000
2022-09-25 01:00 3.18 96000 642000 (1993) 66000 (1976) 162000 71400 81700 96200 101000 125000 175000 193000 332000 401000
2022-09-25 00:30 3.22 96300 642000 (1993) 66000 (1976) 162000 71400 81700 96200 101000 125000 175000 193000 332000 401000
2022-09-25 00:00 3.24 96400 642000 (1993) 66000 (1976) 162000 71400 81700 96200 101000 125000 175000 193000 332000 401000
2022-09-24 23:30 3.26 96600 612000 (1993) 65500 (1976) 161000 73900 82600 101000 107000 127000 179000 200000 316000 377000
2022-09-24 23:00 3.30 96900 612000 (1993) 65500 (1976) 161000 73900 82600 101000 107000 127000 179000 200000 316000 377000
2022-09-24 22:30 3.34 97200 612000 (1993) 65500 (1976) 161000 73900 82600 101000 107000 127000 179000 200000 316000 377000
2022-09-24 22:00 3.37 97500 612000 (1993) 65500 (1976) 161000 73900 82600 101000 107000 127000 179000 200000 316000 377000
2022-09-24 21:30 3.40 97700 612000 (1993) 65500 (1976) 161000 73900 82600 101000 107000 127000 179000 200000 316000 377000
2022-09-24 21:00 3.43 98000 612000 (1993) 65500 (1976) 161000 73900 82600 101000 107000 127000 179000 200000 316000 377000
2022-09-24 20:30 3.48 98400 612000 (1993) 65500 (1976) 161000 73900 82600 101000 107000 127000 179000 200000 316000 377000
2022-09-24 20:00 3.56 99000 612000 (1993) 65500 (1976) 161000 73900 82600 101000 107000 127000 179000 200000 316000 377000
2022-09-24 19:30 3.58 99200 612000 (1993) 65500 (1976) 161000 73900 82600 101000 107000 127000 179000 200000 316000 377000
2022-09-24 19:00 3.62 99500 612000 (1993) 65500 (1976) 161000 73900 82600 101000 107000 127000 179000 200000 316000 377000
2022-09-24 18:30 3.64 99600 612000 (1993) 65500 (1976) 161000 73900 82600 101000 107000 127000 179000 200000 316000 377000
2022-09-24 18:00 3.65 99700 612000 (1993) 65500 (1976) 161000 73900 82600 101000 107000 127000 179000 200000 316000 377000
2022-09-24 17:30 3.66 99800 612000 (1993) 65500 (1976) 161000 73900 82600 101000 107000 127000 179000 200000 316000 377000
2022-09-24 17:00 3.70 100000 612000 (1993) 65500 (1976) 161000 73900 82600 101000 107000 127000 179000 200000 316000 377000
2022-09-24 16:30 3.67 99900 612000 (1993) 65500 (1976) 161000 73900 82600 101000 107000 127000 179000 200000 316000 377000
2022-09-24 16:00 3.68 100000 612000 (1993) 65500 (1976) 161000 73900 82600 101000 107000 127000 179000 200000 316000 377000
2022-09-24 15:30 3.67 99900 612000 (1993) 65500 (1976) 161000 73900 82600 101000 107000 127000 179000 200000 316000 377000
2022-09-24 15:00 3.67 99900 612000 (1993) 65500 (1976) 161000 73900 82600 101000 107000 127000 179000 200000 316000 377000
2022-09-24 14:30 3.65 99700 612000 (1993) 65500 (1976) 161000 73900 82600 101000 107000 127000 179000 200000 316000 377000
2022-09-24 14:00 3.63 99600 612000 (1993) 65500 (1976) 161000 73900 82600 101000 107000 127000 179000 200000 316000 377000
2022-09-24 13:30 3.64 99600 612000 (1993) 65500 (1976) 161000 73900 82600 101000 107000 127000 179000 200000 316000 377000
2022-09-24 13:00 3.61 99400 612000 (1993) 65500 (1976) 161000 73900 82600 101000 107000 127000 179000 200000 316000 377000
2022-09-24 12:30 3.64 99600 612000 (1993) 65500 (1976) 161000 73900 82600 101000 107000 127000 179000 200000 316000 377000
2022-09-24 12:00 3.60 99300 612000 (1993) 65500 (1976) 161000 73900 82600 101000 107000 127000 179000 200000 316000 377000
2022-09-24 11:30 3.59 99200 612000 (1993) 65500 (1976) 161000 73900 82600 101000 107000 127000 179000 200000 316000 377000
2022-09-24 11:00 3.59 99200 612000 (1993) 65500 (1976) 161000 73900 82600 101000 107000 127000 179000 200000 316000 377000
2022-09-24 10:30 3.58 99200 612000 (1993) 65500 (1976) 161000 73900 82600 101000 107000 127000 179000 200000 316000 377000
2022-09-24 10:00 3.57 99100 612000 (1993) 65500 (1976) 161000 73900 82600 101000 107000 127000 179000 200000 316000 377000
2022-09-24 09:30 3.58 99200 612000 (1993) 65500 (1976) 161000 73900 82600 101000 107000 127000 179000 200000 316000 377000
2022-09-24 09:00 3.58 99200 612000 (1993) 65500 (1976) 161000 73900 82600 101000 107000 127000 179000 200000 316000 377000
2022-09-24 08:30 3.58 99200 612000 (1993) 65500 (1976) 161000 73900 82600 101000 107000 127000 179000 200000 316000 377000
2022-09-24 08:00 3.62 99500 612000 (1993) 65500 (1976) 161000 73900 82600 101000 107000 127000 179000 200000 316000 377000
2022-09-24 07:30 3.63 99600 612000 (1993) 65500 (1976) 161000 73900 82600 101000 107000 127000 179000 200000 316000 377000
2022-09-24 07:00 3.65 99700 612000 (1993) 65500 (1976) 161000 73900 82600 101000 107000 127000 179000 200000 316000 377000
2022-09-24 06:30 3.67 99900 612000 (1993) 65500 (1976) 161000 73900 82600 101000 107000 127000 179000 200000 316000 377000
2022-09-24 06:00 3.70 100000 612000 (1993) 65500 (1976) 161000 73900 82600 101000 107000 127000 179000 200000 316000 377000
2022-09-24 05:30 3.73 100000 612000 (1993) 65500 (1976) 161000 73900 82600 101000 107000 127000 179000 200000 316000 377000
2022-09-24 05:00 3.75 101000 612000 (1993) 65500 (1976) 161000 73900 82600 101000 107000 127000 179000 200000 316000 377000
2022-09-24 04:30 3.78 101000 612000 (1993) 65500 (1976) 161000 73900 82600 101000 107000 127000 179000 200000 316000 377000
2022-09-24 04:00 3.80 101000 612000 (1993) 65500 (1976) 161000 73900 82600 101000 107000 127000 179000 200000 316000 377000
2022-09-24 03:30 3.83 101000 612000 (1993) 65500 (1976) 161000 73900 82600 101000 107000 127000 179000 200000 316000 377000
2022-09-24 03:00 3.84 101000 612000 (1993) 65500 (1976) 161000 73900 82600 101000 107000 127000 179000 200000 316000 377000
2022-09-24 02:30 3.86 101000 612000 (1993) 65500 (1976) 161000 73900 82600 101000 107000 127000 179000 200000 316000 377000
2022-09-24 02:00 3.87 102000 612000 (1993) 65500 (1976) 161000 73900 82600 101000 107000 127000 179000 200000 316000 377000
2022-09-24 01:30 3.93 102000 612000 (1993) 65500 (1976) 161000 73900 82600 101000 107000 127000 179000 200000 316000 377000
2022-09-24 01:00 3.90 102000 612000 (1993) 65500 (1976) 161000 73900 82600 101000 107000 127000 179000 200000 316000 377000
2022-09-24 00:30 3.96 102000 612000 (1993) 65500 (1976) 161000 73900 82600 101000 107000 127000 179000 200000 316000 377000
2022-09-24 00:00 3.98 102000 612000 (1993) 65500 (1976) 161000 73900 82600 101000 107000 127000 179000 200000 316000 377000
2022-09-23 23:30 3.99 103000 563000 (1993) 63800 (1976) 161000 70200 78800 99200 106000 123000 185000 217000 306000 360000
2022-09-23 23:00 4.02 103000 563000 (1993) 63800 (1976) 161000 70200 78800 99200 106000 123000 185000 217000 306000 360000
2022-09-23 22:30 4.06 103000 563000 (1993) 63800 (1976) 161000 70200 78800 99200 106000 123000 185000 217000 306000 360000
2022-09-23 22:00 4.05 103000 563000 (1993) 63800 (1976) 161000 70200 78800 99200 106000 123000 185000 217000 306000 360000
2022-09-23 21:30 4.06 103000 563000 (1993) 63800 (1976) 161000 70200 78800 99200 106000 123000 185000 217000 306000 360000
2022-09-23 21:00 4.08 103000 563000 (1993) 63800 (1976) 161000 70200 78800 99200 106000 123000 185000 217000 306000 360000
2022-09-23 20:30 4.13 104000 563000 (1993) 63800 (1976) 161000 70200 78800 99200 106000 123000 185000 217000 306000 360000
2022-09-23 20:00 4.15 104000 563000 (1993) 63800 (1976) 161000 70200 78800 99200 106000 123000 185000 217000 306000 360000
2022-09-23 19:30 4.17 104000 563000 (1993) 63800 (1976) 161000 70200 78800 99200 106000 123000 185000 217000 306000 360000
2022-09-23 19:00 4.18 104000 563000 (1993) 63800 (1976) 161000 70200 78800 99200 106000 123000 185000 217000 306000 360000
2022-09-23 18:30 4.21 104000 563000 (1993) 63800 (1976) 161000 70200 78800 99200 106000 123000 185000 217000 306000 360000
2022-09-23 18:00 4.22 104000 563000 (1993) 63800 (1976) 161000 70200 78800 99200 106000 123000 185000 217000 306000 360000
2022-09-23 17:30 4.24 105000 563000 (1993) 63800 (1976) 161000 70200 78800 99200 106000 123000 185000 217000 306000 360000
2022-09-23 17:00 4.27 105000 563000 (1993) 63800 (1976) 161000 70200 78800 99200 106000 123000 185000 217000 306000 360000
2022-09-23 16:30 4.27 105000 563000 (1993) 63800 (1976) 161000 70200 78800 99200 106000 123000 185000 217000 306000 360000
2022-09-23 16:00 4.29 105000 563000 (1993) 63800 (1976) 161000 70200 78800 99200 106000 123000 185000 217000 306000 360000
2022-09-23 15:30 4.30 105000 563000 (1993) 63800 (1976) 161000 70200 78800 99200 106000 123000 185000 217000 306000 360000
2022-09-23 15:00 4.29 105000 563000 (1993) 63800 (1976) 161000 70200 78800 99200 106000 123000 185000 217000 306000 360000
2022-09-23 14:30 4.32 105000 563000 (1993) 63800 (1976) 161000 70200 78800 99200 106000 123000 185000 217000 306000 360000
2022-09-23 14:00 4.30 105000 563000 (1993) 63800 (1976) 161000 70200 78800 99200 106000 123000 185000 217000 306000 360000
2022-09-23 13:30 4.33 105000 563000 (1993) 63800 (1976) 161000 70200 78800 99200 106000 123000 185000 217000 306000 360000
2022-09-23 13:00 4.33 105000 563000 (1993) 63800 (1976) 161000 70200 78800 99200 106000 123000 185000 217000 306000 360000
2022-09-23 12:30 4.31 105000 563000 (1993) 63800 (1976) 161000 70200 78800 99200 106000 123000 185000 217000 306000 360000
2022-09-23 12:00 4.33 105000 563000 (1993) 63800 (1976) 161000 70200 78800 99200 106000 123000 185000 217000 306000 360000
2022-09-23 11:30 4.30 105000 563000 (1993) 63800 (1976) 161000 70200 78800 99200 106000 123000 185000 217000 306000 360000
2022-09-23 11:00 4.30 105000 563000 (1993) 63800 (1976) 161000 70200 78800 99200 106000 123000 185000 217000 306000 360000
2022-09-23 10:30 4.31 105000 563000 (1993) 63800 (1976) 161000 70200 78800 99200 106000 123000 185000 217000 306000 360000
2022-09-23 10:00 4.34 105000 563000 (1993) 63800 (1976) 161000 70200 78800 99200 106000 123000 185000 217000 306000 360000
2022-09-23 09:30 4.37 106000 563000 (1993) 63800 (1976) 161000 70200 78800 99200 106000 123000 185000 217000 306000 360000
2022-09-23 09:00 4.35 106000 563000 (1993) 63800 (1976) 161000 70200 78800 99200 106000 123000 185000 217000 306000 360000
2022-09-23 08:30 4.35 106000 563000 (1993) 63800 (1976) 161000 70200 78800 99200 106000 123000 185000 217000 306000 360000
2022-09-23 08:00 4.36 106000 563000 (1993) 63800 (1976) 161000 70200 78800 99200 106000 123000 185000 217000 306000 360000
2022-09-23 07:30 4.37 106000 563000 (1993) 63800 (1976) 161000 70200 78800 99200 106000 123000 185000 217000 306000 360000
2022-09-23 07:00 4.38 106000 563000 (1993) 63800 (1976) 161000 70200 78800 99200 106000 123000 185000 217000 306000 360000
2022-09-23 06:30 4.38 106000 563000 (1993) 63800 (1976) 161000 70200 78800 99200 106000 123000 185000 217000 306000 360000
2022-09-23 06:00 4.41 106000 563000 (1993) 63800 (1976) 161000 70200 78800 99200 106000 123000 185000 217000 306000 360000
2022-09-23 05:30 4.38 106000 563000 (1993) 63800 (1976) 161000 70200 78800 99200 106000 123000 185000 217000 306000 360000
2022-09-23 05:00 4.41 106000 563000 (1993) 63800 (1976) 161000 70200 78800 99200 106000 123000 185000 217000 306000 360000
2022-09-23 04:30 4.43 106000 563000 (1993) 63800 (1976) 161000 70200 78800 99200 106000 123000 185000 217000 306000 360000
2022-09-23 04:00 4.44 106000 563000 (1993) 63800 (1976) 161000 70200 78800 99200 106000 123000 185000 217000 306000 360000
2022-09-23 03:30 4.46 106000 563000 (1993) 63800 (1976) 161000 70200 78800 99200 106000 123000 185000 217000 306000 360000
2022-09-23 03:00 4.49 107000 563000 (1993) 63800 (1976) 161000 70200 78800 99200 106000 123000 185000 217000 306000 360000
2022-09-23 02:30 4.47 107000 563000 (1993) 63800 (1976) 161000 70200 78800 99200 106000 123000 185000 217000 306000 360000
2022-09-23 02:00 4.48 107000 563000 (1993) 63800 (1976) 161000 70200 78800 99200 106000 123000 185000 217000 306000 360000
2022-09-23 01:30 4.49 107000 563000 (1993) 63800 (1976) 161000 70200 78800 99200 106000 123000 185000 217000 306000 360000
2022-09-23 01:00 4.54 107000 563000 (1993) 63800 (1976) 161000 70200 78800 99200 106000 123000 185000 217000 306000 360000
2022-09-23 00:30 4.55 107000 563000 (1993) 63800 (1976) 161000 70200 78800 99200 106000 123000 185000 217000 306000 360000
2022-09-23 00:00 4.56 107000 563000 (1993) 63800 (1976) 161000 70200 78800 99200 106000 123000 185000 217000 306000 360000
2022-09-22 23:30 4.56 107000 562000 (2008) 63300 (1976) 161000 70300 77400 91300 98800 122000 181000 225000 320000 362000
2022-09-22 23:00 4.59 108000 562000 (2008) 63300 (1976) 161000 70300 77400 91300 98800 122000 181000 225000 320000 362000
2022-09-22 22:30 4.60 108000 562000 (2008) 63300 (1976) 161000 70300 77400 91300 98800 122000 181000 225000 320000 362000
2022-09-22 22:00 4.61 108000 562000 (2008) 63300 (1976) 161000 70300 77400 91300 98800 122000 181000 225000 320000 362000
2022-09-22 21:30 4.66 108000 562000 (2008) 63300 (1976) 161000 70300 77400 91300 98800 122000 181000 225000 320000 362000
2022-09-22 21:00 4.66 108000 562000 (2008) 63300 (1976) 161000 70300 77400 91300 98800 122000 181000 225000 320000 362000
2022-09-22 20:30 4.67 108000 562000 (2008) 63300 (1976) 161000 70300 77400 91300 98800 122000 181000 225000 320000 362000
2022-09-22 20:00 4.72 109000 562000 (2008) 63300 (1976) 161000 70300 77400 91300 98800 122000 181000 225000 320000 362000
2022-09-22 19:30 4.72 109000 562000 (2008) 63300 (1976) 161000 70300 77400 91300 98800 122000 181000 225000 320000 362000
2022-09-22 19:00 4.76 109000 562000 (2008) 63300 (1976) 161000 70300 77400 91300 98800 122000 181000 225000 320000 362000
2022-09-22 18:30 4.75 109000 562000 (2008) 63300 (1976) 161000 70300 77400 91300 98800 122000 181000 225000 320000 362000
2022-09-22 18:00 4.74 109000 562000 (2008) 63300 (1976) 161000 70300 77400 91300 98800 122000 181000 225000 320000 362000
2022-09-22 17:30 4.74 109000 562000 (2008) 63300 (1976) 161000 70300 77400 91300 98800 122000 181000 225000 320000 362000
2022-09-22 17:00 4.74 109000 562000 (2008) 63300 (1976) 161000 70300 77400 91300 98800 122000 181000 225000 320000 362000
2022-09-22 16:30 4.77 109000 562000 (2008) 63300 (1976) 161000 70300 77400 91300 98800 122000 181000 225000 320000 362000
2022-09-22 16:00 4.77 109000 562000 (2008) 63300 (1976) 161000 70300 77400 91300 98800 122000 181000 225000 320000 362000
2022-09-22 15:30 4.74 109000 562000 (2008) 63300 (1976) 161000 70300 77400 91300 98800 122000 181000 225000 320000 362000
2022-09-22 15:00 4.75 109000 562000 (2008) 63300 (1976) 161000 70300 77400 91300 98800 122000 181000 225000 320000 362000
2022-09-22 14:30 4.75 109000 562000 (2008) 63300 (1976) 161000 70300 77400 91300 98800 122000 181000 225000 320000 362000
2022-09-22 14:00 4.74 109000 562000 (2008) 63300 (1976) 161000 70300 77400 91300 98800 122000 181000 225000 320000 362000
2022-09-22 13:30 4.77 109000 562000 (2008) 63300 (1976) 161000 70300 77400 91300 98800 122000 181000 225000 320000 362000
2022-09-22 13:00 4.76 109000 562000 (2008) 63300 (1976) 161000 70300 77400 91300 98800 122000 181000 225000 320000 362000
2022-09-22 12:30 4.73 109000 562000 (2008) 63300 (1976) 161000 70300 77400 91300 98800 122000 181000 225000 320000 362000
2022-09-22 12:00 4.74 109000 562000 (2008) 63300 (1976) 161000 70300 77400 91300 98800 122000 181000 225000 320000 362000
2022-09-22 11:30 4.72 109000 562000 (2008) 63300 (1976) 161000 70300 77400 91300 98800 122000 181000 225000 320000 362000
2022-09-22 11:00 4.72 109000 562000 (2008) 63300 (1976) 161000 70300 77400 91300 98800 122000 181000 225000 320000 362000
2022-09-22 10:30 4.70 108000 562000 (2008) 63300 (1976) 161000 70300 77400 91300 98800 122000 181000 225000 320000 362000
2022-09-22 10:00 4.73 109000 562000 (2008) 63300 (1976) 161000 70300 77400 91300 98800 122000 181000 225000 320000 362000
2022-09-22 09:30 4.71 109000 562000 (2008) 63300 (1976) 161000 70300 77400 91300 98800 122000 181000 225000 320000 362000
2022-09-22 09:00 4.69 108000 562000 (2008) 63300 (1976) 161000 70300 77400 91300 98800 122000 181000 225000 320000 362000
2022-09-22 08:30 4.67 108000 562000 (2008) 63300 (1976) 161000 70300 77400 91300 98800 122000 181000 225000 320000 362000
2022-09-22 08:00 4.68 108000 562000 (2008) 63300 (1976) 161000 70300 77400 91300 98800 122000 181000 225000 320000 362000
2022-09-22 07:30 4.68 108000 562000 (2008) 63300 (1976) 161000 70300 77400 91300 98800 122000 181000 225000 320000 362000
2022-09-22 07:00 4.69 108000 562000 (2008) 63300 (1976) 161000 70300 77400 91300 98800 122000 181000 225000 320000 362000
2022-09-22 06:30 4.67 108000 562000 (2008) 63300 (1976) 161000 70300 77400 91300 98800 122000 181000 225000 320000 362000
2022-09-22 06:00 4.65 108000 562000 (2008) 63300 (1976) 161000 70300 77400 91300 98800 122000 181000 225000 320000 362000
2022-09-22 05:30 4.65 108000 562000 (2008) 63300 (1976) 161000 70300 77400 91300 98800 122000 181000 225000 320000 362000
2022-09-22 05:00 4.55 107000 562000 (2008) 63300 (1976) 161000 70300 77400 91300 98800 122000 181000 225000 320000 362000
2022-09-22 04:30 4.69 108000 562000 (2008) 63300 (1976) 161000 70300 77400 91300 98800 122000 181000 225000 320000 362000
2022-09-22 04:00 4.67 108000 562000 (2008) 63300 (1976) 161000 70300 77400 91300 98800 122000 181000 225000 320000 362000
2022-09-22 03:30 4.67 108000 562000 (2008) 63300 (1976) 161000 70300 77400 91300 98800 122000 181000 225000 320000 362000
2022-09-22 03:00 4.65 108000 562000 (2008) 63300 (1976) 161000 70300 77400 91300 98800 122000 181000 225000 320000 362000
2022-09-22 02:30 4.72 109000 562000 (2008) 63300 (1976) 161000 70300 77400 91300 98800 122000 181000 225000 320000 362000
2022-09-22 02:00 4.71 109000 562000 (2008) 63300 (1976) 161000 70300 77400 91300 98800 122000 181000 225000 320000 362000
2022-09-22 01:30 4.74 109000 562000 (2008) 63300 (1976) 161000 70300 77400 91300 98800 122000 181000 225000 320000 362000
2022-09-22 01:00 4.72 109000 562000 (2008) 63300 (1976) 161000 70300 77400 91300 98800 122000 181000 225000 320000 362000
2022-09-22 00:30 4.73 109000 562000 (2008) 63300 (1976) 161000 70300 77400 91300 98800 122000 181000 225000 320000 362000
2022-09-22 00:00 4.71 109000 562000 (2008) 63300 (1976) 161000 70300 77400 91300 98800 122000 181000 225000 320000 362000
2022-09-21 23:30 4.74 109000 615000 (2008) 62500 (1976) 162000 68100 79400 90400 95400 121000 185000 216000 346000 376000
2022-09-21 23:00 4.75 109000 615000 (2008) 62500 (1976) 162000 68100 79400 90400 95400 121000 185000 216000 346000 376000
2022-09-21 22:30 4.73 109000 615000 (2008) 62500 (1976) 162000 68100 79400 90400 95400 121000 185000 216000 346000 376000
2022-09-21 22:00 4.73 109000 615000 (2008) 62500 (1976) 162000 68100 79400 90400 95400 121000 185000 216000 346000 376000
2022-09-21 21:30 4.76 109000 615000 (2008) 62500 (1976) 162000 68100 79400 90400 95400 121000 185000 216000 346000 376000
2022-09-21 21:00 4.78 109000 615000 (2008) 62500 (1976) 162000 68100 79400 90400 95400 121000 185000 216000 346000 376000
2022-09-21 20:30 4.76 109000 615000 (2008) 62500 (1976) 162000 68100 79400 90400 95400 121000 185000 216000 346000 376000
2022-09-21 20:00 4.76 109000 615000 (2008) 62500 (1976) 162000 68100 79400 90400 95400 121000 185000 216000 346000 376000
2022-09-21 19:30 4.75 109000 615000 (2008) 62500 (1976) 162000 68100 79400 90400 95400 121000 185000 216000 346000 376000
2022-09-21 19:00 4.79 109000 615000 (2008) 62500 (1976) 162000 68100 79400 90400 95400 121000 185000 216000 346000 376000
2022-09-21 18:30 4.78 109000 615000 (2008) 62500 (1976) 162000 68100 79400 90400 95400 121000 185000 216000 346000 376000
2022-09-21 18:00 4.78 109000 615000 (2008) 62500 (1976) 162000 68100 79400 90400 95400 121000 185000 216000 346000 376000
2022-09-21 17:30 4.89 110000 615000 (2008) 62500 (1976) 162000 68100 79400 90400 95400 121000 185000 216000 346000 376000
2022-09-21 17:00 4.84 110000 615000 (2008) 62500 (1976) 162000 68100 79400 90400 95400 121000 185000 216000 346000 376000
2022-09-21 16:30 4.87 110000 615000 (2008) 62500 (1976) 162000 68100 79400 90400 95400 121000 185000 216000 346000 376000
2022-09-21 16:00 4.92 110000 615000 (2008) 62500 (1976) 162000 68100 79400 90400 95400 121000 185000 216000 346000 376000
2022-09-21 15:30 4.99 111000 615000 (2008) 62500 (1976) 162000 68100 79400 90400 95400 121000 185000 216000 346000 376000
2022-09-21 15:00 4.98 111000 615000 (2008) 62500 (1976) 162000 68100 79400 90400 95400 121000 185000 216000 346000 376000
2022-09-21 14:30 4.96 111000 615000 (2008) 62500 (1976) 162000 68100 79400 90400 95400 121000 185000 216000 346000 376000
2022-09-21 14:00 4.93 110000 615000 (2008) 62500 (1976) 162000 68100 79400 90400 95400 121000 185000 216000 346000 376000
2022-09-21 13:30 4.94 111000 615000 (2008) 62500 (1976) 162000 68100 79400 90400 95400 121000 185000 216000 346000 376000
2022-09-21 13:00 4.88 110000 615000 (2008) 62500 (1976) 162000 68100 79400 90400 95400 121000 185000 216000 346000 376000
2022-09-21 12:30 4.88 110000 615000 (2008) 62500 (1976) 162000 68100 79400 90400 95400 121000 185000 216000 346000 376000
2022-09-21 12:00 4.78 109000 615000 (2008) 62500 (1976) 162000 68100 79400 90400 95400 121000 185000 216000 346000 376000
2022-09-21 11:30 4.72 109000 615000 (2008) 62500 (1976) 162000 68100 79400 90400 95400 121000 185000 216000 346000 376000
2022-09-21 11:00 4.61 108000 615000 (2008) 62500 (1976) 162000 68100 79400 90400 95400 121000 185000 216000 346000 376000
2022-09-21 10:30 4.59 108000 615000 (2008) 62500 (1976) 162000 68100 79400 90400 95400 121000 185000 216000 346000 376000
2022-09-21 10:00 4.54 107000 615000 (2008) 62500 (1976) 162000 68100 79400 90400 95400 121000 185000 216000 346000 376000
2022-09-21 09:30 4.52 107000 615000 (2008) 62500 (1976) 162000 68100 79400 90400 95400 121000 185000 216000 346000 376000
2022-09-21 09:00 4.50 107000 615000 (2008) 62500 (1976) 162000 68100 79400 90400 95400 121000 185000 216000 346000 376000
2022-09-21 08:30 4.48 107000 615000 (2008) 62500 (1976) 162000 68100 79400 90400 95400 121000 185000 216000 346000 376000
2022-09-21 08:00 4.48 107000 615000 (2008) 62500 (1976) 162000 68100 79400 90400 95400 121000 185000 216000 346000 376000
2022-09-21 07:30 4.45 106000 615000 (2008) 62500 (1976) 162000 68100 79400 90400 95400 121000 185000 216000 346000 376000
2022-09-21 07:00 4.47 107000 615000 (2008) 62500 (1976) 162000 68100 79400 90400 95400 121000 185000 216000 346000 376000
2022-09-21 06:30 4.46 106000 615000 (2008) 62500 (1976) 162000 68100 79400 90400 95400 121000 185000 216000 346000 376000
2022-09-21 06:00 4.45 106000 615000 (2008) 62500 (1976) 162000 68100 79400 90400 95400 121000 185000 216000 346000 376000
2022-09-21 05:30 4.44 106000 615000 (2008) 62500 (1976) 162000 68100 79400 90400 95400 121000 185000 216000 346000 376000
2022-09-21 05:00 4.44 106000 615000 (2008) 62500 (1976) 162000 68100 79400 90400 95400 121000 185000 216000 346000 376000
2022-09-21 04:30 4.42 106000 615000 (2008) 62500 (1976) 162000 68100 79400 90400 95400 121000 185000 216000 346000 376000
2022-09-21 04:00 4.45 106000 615000 (2008) 62500 (1976) 162000 68100 79400 90400 95400 121000 185000 216000 346000 376000
2022-09-21 03:30 4.44 106000 615000 (2008) 62500 (1976) 162000 68100 79400 90400 95400 121000 185000 216000 346000 376000
2022-09-21 03:00 4.44 106000 615000 (2008) 62500 (1976) 162000 68100 79400 90400 95400 121000 185000 216000 346000 376000
2022-09-21 02:30 4.42 106000 615000 (2008) 62500 (1976) 162000 68100 79400 90400 95400 121000 185000 216000 346000 376000
2022-09-21 02:00 4.44 106000 615000 (2008) 62500 (1976) 162000 68100 79400 90400 95400 121000 185000 216000 346000 376000
2022-09-21 01:30 4.42 106000 615000 (2008) 62500 (1976) 162000 68100 79400 90400 95400 121000 185000 216000 346000 376000
2022-09-21 01:00 4.47 107000 615000 (2008) 62500 (1976) 162000 68100 79400 90400 95400 121000 185000 216000 346000 376000
2022-09-21 00:30 4.46 106000 615000 (2008) 62500 (1976) 162000 68100 79400 90400 95400 121000 185000 216000 346000 376000
2022-09-21 00:00 4.45 106000 615000 (2008) 62500 (1976) 162000 68100 79400 90400 95400 121000 185000 216000 346000 376000
2022-09-20 23:30 4.43 106000 643000 (2008) 61100 (1976) 163000 70200 76700 91000 97600 124000 190000 205000 332000 390000
2022-09-20 23:00 4.43 106000 643000 (2008) 61100 (1976) 163000 70200 76700 91000 97600 124000 190000 205000 332000 390000
2022-09-20 22:30 4.43 106000 643000 (2008) 61100 (1976) 163000 70200 76700 91000 97600 124000 190000 205000 332000 390000
2022-09-20 22:00 4.45 106000 643000 (2008) 61100 (1976) 163000 70200 76700 91000 97600 124000 190000 205000 332000 390000
2022-09-20 21:30 4.44 106000 643000 (2008) 61100 (1976) 163000 70200 76700 91000 97600 124000 190000 205000 332000 390000
2022-09-20 21:00 4.46 106000 643000 (2008) 61100 (1976) 163000 70200 76700 91000 97600 124000 190000 205000 332000 390000
2022-09-20 20:30 4.47 107000 643000 (2008) 61100 (1976) 163000 70200 76700 91000 97600 124000 190000 205000 332000 390000
2022-09-20 20:00 4.51 107000 643000 (2008) 61100 (1976) 163000 70200 76700 91000 97600 124000 190000 205000 332000 390000
2022-09-20 19:30 4.55 107000 643000 (2008) 61100 (1976) 163000 70200 76700 91000 97600 124000 190000 205000 332000 390000
2022-09-20 19:00 4.61 108000 643000 (2008) 61100 (1976) 163000 70200 76700 91000 97600 124000 190000 205000 332000 390000
2022-09-20 18:30 4.60 108000 643000 (2008) 61100 (1976) 163000 70200 76700 91000 97600 124000 190000 205000 332000 390000
2022-09-20 18:00 4.56 107000 643000 (2008) 61100 (1976) 163000 70200 76700 91000 97600 124000 190000 205000 332000 390000
2022-09-20 17:30 4.53 107000 643000 (2008) 61100 (1976) 163000 70200 76700 91000 97600 124000 190000 205000 332000 390000
2022-09-20 17:00 4.55 107000 643000 (2008) 61100 (1976) 163000 70200 76700 91000 97600 124000 190000 205000 332000 390000
2022-09-20 16:30 4.53 107000 643000 (2008) 61100 (1976) 163000 70200 76700 91000 97600 124000 190000 205000 332000 390000
2022-09-20 16:00 4.50 107000 643000 (2008) 61100 (1976) 163000 70200 76700 91000 97600 124000 190000 205000 332000 390000
2022-09-20 15:30 4.42 106000 643000 (2008) 61100 (1976) 163000 70200 76700 91000 97600 124000 190000 205000 332000 390000
2022-09-20 15:00 4.47 107000 643000 (2008) 61100 (1976) 163000 70200 76700 91000 97600 124000 190000 205000 332000 390000
2022-09-20 14:30 4.44 106000 643000 (2008) 61100 (1976) 163000 70200 76700 91000 97600 124000 190000 205000 332000 390000
2022-09-20 14:00 4.40 106000 643000 (2008) 61100 (1976) 163000 70200 76700 91000 97600 124000 190000 205000 332000 390000
2022-09-20 13:30 4.40 106000 643000 (2008) 61100 (1976) 163000 70200 76700 91000 97600 124000 190000 205000 332000 390000
2022-09-20 13:00 4.35 106000 643000 (2008) 61100 (1976) 163000 70200 76700 91000 97600 124000 190000 205000 332000 390000
2022-09-20 12:30 4.33 105000 643000 (2008) 61100 (1976) 163000 70200 76700 91000 97600 124000 190000 205000 332000 390000
2022-09-20 12:00 4.27 105000 643000 (2008) 61100 (1976) 163000 70200 76700 91000 97600 124000 190000 205000 332000 390000
2022-09-20 11:30 4.20 104000 643000 (2008) 61100 (1976) 163000 70200 76700 91000 97600 124000 190000 205000 332000 390000
2022-09-20 11:00 4.08 103000 643000 (2008) 61100 (1976) 163000 70200 76700 91000 97600 124000 190000 205000 332000 390000
2022-09-20 10:30 4.03 103000 643000 (2008) 61100 (1976) 163000 70200 76700 91000 97600 124000 190000 205000 332000 390000
2022-09-20 10:00 3.95 102000 643000 (2008) 61100 (1976) 163000 70200 76700 91000 97600 124000 190000 205000 332000 390000
2022-09-20 09:30 3.92 102000 643000 (2008) 61100 (1976) 163000 70200 76700 91000 97600 124000 190000 205000 332000 390000
2022-09-20 09:00 3.89 102000 643000 (2008) 61100 (1976) 163000 70200 76700 91000 97600 124000 190000 205000 332000 390000
2022-09-20 08:30 3.87 102000 643000 (2008) 61100 (1976) 163000 70200 76700 91000 97600 124000 190000 205000 332000 390000
2022-09-20 08:00 3.85 101000 643000 (2008) 61100 (1976) 163000 70200 76700 91000 97600 124000 190000 205000 332000 390000
2022-09-20 07:30 3.81 101000 643000 (2008) 61100 (1976) 163000 70200 76700 91000 97600 124000 190000 205000 332000 390000
2022-09-20 07:00 3.80 101000 643000 (2008) 61100 (1976) 163000 70200 76700 91000 97600 124000 190000 205000 332000 390000
2022-09-20 06:30 3.79 101000 643000 (2008) 61100 (1976) 163000 70200 76700 91000 97600 124000 190000 205000 332000 390000
2022-09-20 06:00 3.79 101000 643000 (2008) 61100 (1976) 163000 70200 76700 91000 97600 124000 190000 205000 332000 390000
2022-09-20 05:30 3.77 101000 643000 (2008) 61100 (1976) 163000 70200 76700 91000 97600 124000 190000 205000 332000 390000
2022-09-20 05:00 3.77 101000 643000 (2008) 61100 (1976) 163000 70200 76700 91000 97600 124000 190000 205000 332000 390000
2022-09-20 04:30 3.76 101000 643000 (2008) 61100 (1976) 163000 70200 76700 91000 97600 124000 190000 205000 332000 390000
2022-09-20 04:00 3.74 100000 643000 (2008) 61100 (1976) 163000 70200 76700 91000 97600 124000 190000 205000 332000 390000
2022-09-20 03:30 3.73 100000 643000 (2008) 61100 (1976) 163000 70200 76700 91000 97600 124000 190000 205000 332000 390000
2022-09-20 03:00 3.74 100000 643000 (2008) 61100 (1976) 163000 70200 76700 91000 97600 124000 190000 205000 332000 390000
2022-09-20 02:30 3.73 100000 643000 (2008) 61100 (1976) 163000 70200 76700 91000 97600 124000 190000 205000 332000 390000
2022-09-20 02:00 3.65 99700 643000 (2008) 61100 (1976) 163000 70200 76700 91000 97600 124000 190000 205000 332000 390000
2022-09-20 01:30 3.73 100000 643000 (2008) 61100 (1976) 163000 70200 76700 91000 97600 124000 190000 205000 332000 390000
2022-09-20 01:00 3.72 100000 643000 (2008) 61100 (1976) 163000 70200 76700 91000 97600 124000 190000 205000 332000 390000
2022-09-20 00:30 3.72 100000 643000 (2008) 61100 (1976) 163000 70200 76700 91000 97600 124000 190000 205000 332000 390000
2022-09-20 00:00 3.70 100000 643000 (2008) 61100 (1976) 163000 70200 76700 91000 97600 124000 190000 205000 332000 390000
2022-09-19 23:30 3.71 100000 648000 (2008) 60900 (1955) 165000 72900 77400 95100 98900 123000 183000 213000 330000 409000
2022-09-19 23:00 3.70 100000 648000 (2008) 60900 (1955) 165000 72900 77400 95100 98900 123000 183000 213000 330000 409000
2022-09-19 22:30 3.74 100000 648000 (2008) 60900 (1955) 165000 72900 77400 95100 98900 123000 183000 213000 330000 409000
2022-09-19 22:00 3.73 100000 648000 (2008) 60900 (1955) 165000 72900 77400 95100 98900 123000 183000 213000 330000 409000
2022-09-19 21:30 3.73 100000 648000 (2008) 60900 (1955) 165000 72900 77400 95100 98900 123000 183000 213000 330000 409000
2022-09-19 21:00 3.75 101000 648000 (2008) 60900 (1955) 165000 72900 77400 95100 98900 123000 183000 213000 330000 409000
2022-09-19 20:30 3.77 101000 648000 (2008) 60900 (1955) 165000 72900 77400 95100 98900 123000 183000 213000 330000 409000
2022-09-19 20:00 3.78 101000 648000 (2008) 60900 (1955) 165000 72900 77400 95100 98900 123000 183000 213000 330000 409000
2022-09-19 19:30 3.81 101000 648000 (2008) 60900 (1955) 165000 72900 77400 95100 98900 123000 183000 213000 330000 409000
2022-09-19 19:00 3.85 101000 648000 (2008) 60900 (1955) 165000 72900 77400 95100 98900 123000 183000 213000 330000 409000
2022-09-19 18:30 3.84 101000 648000 (2008) 60900 (1955) 165000 72900 77400 95100 98900 123000 183000 213000 330000 409000
2022-09-19 18:00 3.84 101000 648000 (2008) 60900 (1955) 165000 72900 77400 95100 98900 123000 183000 213000 330000 409000
2022-09-19 17:30 3.84 101000 648000 (2008) 60900 (1955) 165000 72900 77400 95100 98900 123000 183000 213000 330000 409000
2022-09-19 17:00 3.85 101000 648000 (2008) 60900 (1955) 165000 72900 77400 95100 98900 123000 183000 213000 330000 409000
2022-09-19 16:30 3.85 101000 648000 (2008) 60900 (1955) 165000 72900 77400 95100 98900 123000 183000 213000 330000 409000
2022-09-19 16:00 3.83 101000 648000 (2008) 60900 (1955) 165000 72900 77400 95100 98900 123000 183000 213000 330000 409000
2022-09-19 15:30 3.83 101000 648000 (2008) 60900 (1955) 165000 72900 77400 95100 98900 123000 183000 213000 330000 409000
2022-09-19 15:00 3.82 101000 648000 (2008) 60900 (1955) 165000 72900 77400 95100 98900 123000 183000 213000 330000 409000
2022-09-19 14:30 3.82 101000 648000 (2008) 60900 (1955) 165000 72900 77400 95100 98900 123000 183000 213000 330000 409000
2022-09-19 14:00 3.79 101000 648000 (2008) 60900 (1955) 165000 72900 77400 95100 98900 123000 183000 213000 330000 409000
2022-09-19 13:30 3.78 101000 648000 (2008) 60900 (1955) 165000 72900 77400 95100 98900 123000 183000 213000 330000 409000
2022-09-19 13:00 3.77 101000 648000 (2008) 60900 (1955) 165000 72900 77400 95100 98900 123000 183000 213000 330000 409000
2022-09-19 12:30 3.73 100000 648000 (2008) 60900 (1955) 165000 72900 77400 95100 98900 123000 183000 213000 330000 409000
2022-09-19 12:00 3.72 100000 648000 (2008) 60900 (1955) 165000 72900 77400 95100 98900 123000 183000 213000 330000 409000
2022-09-19 11:30 3.66 99800 648000 (2008) 60900 (1955) 165000 72900 77400 95100 98900 123000 183000 213000 330000 409000
2022-09-19 11:00 3.64 99600 648000 (2008) 60900 (1955) 165000 72900 77400 95100 98900 123000 183000 213000 330000 409000
2022-09-19 10:30 3.60 99300 648000 (2008) 60900 (1955) 165000 72900 77400 95100 98900 123000 183000 213000 330000 409000
2022-09-19 10:00 3.55 98900 648000 (2008) 60900 (1955) 165000 72900 77400 95100 98900 123000 183000 213000 330000 409000
2022-09-19 09:30 3.54 98800 648000 (2008) 60900 (1955) 165000 72900 77400 95100 98900 123000 183000 213000 330000 409000
2022-09-19 09:00 3.44 98000 648000 (2008) 60900 (1955) 165000 72900 77400 95100 98900 123000 183000 213000 330000 409000
2022-09-19 08:30 3.53 98800 648000 (2008) 60900 (1955) 165000 72900 77400 95100 98900 123000 183000 213000 330000 409000
2022-09-19 08:00 3.56 99000 648000 (2008) 60900 (1955) 165000 72900 77400 95100 98900 123000 183000 213000 330000 409000
2022-09-19 07:30 3.54 98800 648000 (2008) 60900 (1955) 165000 72900 77400 95100 98900 123000 183000 213000 330000 409000
2022-09-19 07:00 3.56 99000 648000 (2008) 60900 (1955) 165000 72900 77400 95100 98900 123000 183000 213000 330000 409000
2022-09-19 06:30 3.55 98900 648000 (2008) 60900 (1955) 165000 72900 77400 95100 98900 123000 183000 213000 330000 409000
2022-09-19 06:00 3.56 99000 648000 (2008) 60900 (1955) 165000 72900 77400 95100 98900 123000 183000 213000 330000 409000
2022-09-19 05:30 3.57 99100 648000 (2008) 60900 (1955) 165000 72900 77400 95100 98900 123000 183000 213000 330000 409000
2022-09-19 05:00 3.53 98800 648000 (2008) 60900 (1955) 165000 72900 77400 95100 98900 123000 183000 213000 330000 409000
2022-09-19 04:30 3.61 99400 648000 (2008) 60900 (1955) 165000 72900 77400 95100 98900 123000 183000 213000 330000 409000
2022-09-19 04:00 3.62 99500 648000 (2008) 60900 (1955) 165000 72900 77400 95100 98900 123000 183000 213000 330000 409000
2022-09-19 03:30 3.63 99600 648000 (2008) 60900 (1955) 165000 72900 77400 95100 98900 123000 183000 213000 330000 409000
2022-09-19 03:00 3.67 99900 648000 (2008) 60900 (1955) 165000 72900 77400 95100 98900 123000 183000 213000 330000 409000
2022-09-19 02:30 3.66 99800 648000 (2008) 60900 (1955) 165000 72900 77400 95100 98900 123000 183000 213000 330000 409000
2022-09-19 02:00 3.68 100000 648000 (2008) 60900 (1955) 165000 72900 77400 95100 98900 123000 183000 213000 330000 409000
2022-09-19 01:30 3.69 100000 648000 (2008) 60900 (1955) 165000 72900 77400 95100 98900 123000 183000 213000 330000 409000
2022-09-19 01:00 3.71 100000 648000 (2008) 60900 (1955) 165000 72900 77400 95100 98900 123000 183000 213000 330000 409000
2022-09-19 00:30 3.75 101000 648000 (2008) 60900 (1955) 165000 72900 77400 95100 98900 123000 183000 213000 330000 409000
2022-09-19 00:00 3.76 101000 648000 (2008) 60900 (1955) 165000 72900 77400 95100 98900 123000 183000 213000 330000 409000
2022-09-18 23:30 3.79 101000 627000 (2008) 61600 (1955) 165000 71600 76300 95500 104000 122000 181000 203000 321000 424000
2022-09-18 23:00 3.82 101000 627000 (2008) 61600 (1955) 165000 71600 76300 95500 104000 122000 181000 203000 321000 424000
2022-09-18 22:30 3.85 101000 627000 (2008) 61600 (1955) 165000 71600 76300 95500 104000 122000 181000 203000 321000 424000
2022-09-18 22:00 3.88 102000 627000 (2008) 61600 (1955) 165000 71600 76300 95500 104000 122000 181000 203000 321000 424000
2022-09-18 21:30 3.90 102000 627000 (2008) 61600 (1955) 165000 71600 76300 95500 104000 122000 181000 203000 321000 424000
2022-09-18 21:00 3.95 102000 627000 (2008) 61600 (1955) 165000 71600 76300 95500 104000 122000 181000 203000 321000 424000
2022-09-18 20:30 3.97 102000 627000 (2008) 61600 (1955) 165000 71600 76300 95500 104000 122000 181000 203000 321000 424000
2022-09-18 20:00 4.04 103000 627000 (2008) 61600 (1955) 165000 71600 76300 95500 104000 122000 181000 203000 321000 424000
2022-09-18 19:30 4.07 103000 627000 (2008) 61600 (1955) 165000 71600 76300 95500 104000 122000 181000 203000 321000 424000
2022-09-18 19:00 4.11 104000 627000 (2008) 61600 (1955) 165000 71600 76300 95500 104000 122000 181000 203000 321000 424000
2022-09-18 18:30 4.17 104000 627000 (2008) 61600 (1955) 165000 71600 76300 95500 104000 122000 181000 203000 321000 424000
2022-09-18 18:00 4.18 104000 627000 (2008) 61600 (1955) 165000 71600 76300 95500 104000 122000 181000 203000 321000 424000
2022-09-18 17:30 4.19 104000 627000 (2008) 61600 (1955) 165000 71600 76300 95500 104000 122000 181000 203000 321000 424000
2022-09-18 17:00 4.21 104000 627000 (2008) 61600 (1955) 165000 71600 76300 95500 104000 122000 181000 203000 321000 424000
2022-09-18 16:30 4.22 104000 627000 (2008) 61600 (1955) 165000 71600 76300 95500 104000 122000 181000 203000 321000 424000
2022-09-18 16:00 4.23 104000 627000 (2008) 61600 (1955) 165000 71600 76300 95500 104000 122000 181000 203000 321000 424000
2022-09-18 15:30 4.20 104000 627000 (2008) 61600 (1955) 165000 71600 76300 95500 104000 122000 181000 203000 321000 424000
2022-09-18 15:00 4.18 104000 627000 (2008) 61600 (1955) 165000 71600 76300 95500 104000 122000 181000 203000 321000 424000
2022-09-18 14:30 4.09 103000 627000 (2008) 61600 (1955) 165000 71600 76300 95500 104000 122000 181000 203000 321000 424000
2022-09-18 14:00 4.04 103000 627000 (2008) 61600 (1955) 165000 71600 76300 95500 104000 122000 181000 203000 321000 424000
2022-09-18 13:30 4.03 103000 627000 (2008) 61600 (1955) 165000 71600 76300 95500 104000 122000 181000 203000 321000 424000
2022-09-18 13:00 4.06 103000 627000 (2008) 61600 (1955) 165000 71600 76300 95500 104000 122000 181000 203000 321000 424000
2022-09-18 12:30 4.02 103000 627000 (2008) 61600 (1955) 165000 71600 76300 95500 104000 122000 181000 203000 321000 424000
2022-09-18 12:00 4.03 103000 627000 (2008) 61600 (1955) 165000 71600 76300 95500 104000 122000 181000 203000 321000 424000
2022-09-18 11:30 4.03 103000 627000 (2008) 61600 (1955) 165000 71600 76300 95500 104000 122000 181000 203000 321000 424000
2022-09-18 11:00 4.04 103000 627000 (2008) 61600 (1955) 165000 71600 76300 95500 104000 122000 181000 203000 321000 424000
2022-09-18 10:30 4.07 103000 627000 (2008) 61600 (1955) 165000 71600 76300 95500 104000 122000 181000 203000 321000 424000
2022-09-18 10:00 4.06 103000 627000 (2008) 61600 (1955) 165000 71600 76300 95500 104000 122000 181000 203000 321000 424000
2022-09-18 09:30 4.05 103000 627000 (2008) 61600 (1955) 165000 71600 76300 95500 104000 122000 181000 203000 321000 424000
2022-09-18 09:00 4.08 103000 627000 (2008) 61600 (1955) 165000 71600 76300 95500 104000 122000 181000 203000 321000 424000
2022-09-18 08:30 4.09 103000 627000 (2008) 61600 (1955) 165000 71600 76300 95500 104000 122000 181000 203000 321000 424000
2022-09-18 08:00 4.10 103000 627000 (2008) 61600 (1955) 165000 71600 76300 95500 104000 122000 181000 203000 321000 424000
2022-09-18 07:30 4.09 103000 627000 (2008) 61600 (1955) 165000 71600 76300 95500 104000 122000 181000 203000 321000 424000
2022-09-18 07:00 4.10 103000 627000 (2008) 61600 (1955) 165000 71600 76300 95500 104000 122000 181000 203000 321000 424000
2022-09-18 06:30 4.11 104000 627000 (2008) 61600 (1955) 165000 71600 76300 95500 104000 122000 181000 203000 321000 424000
2022-09-18 06:00 4.12 104000 627000 (2008) 61600 (1955) 165000 71600 76300 95500 104000 122000 181000 203000 321000 424000
2022-09-18 05:30 4.13 104000 627000 (2008) 61600 (1955) 165000 71600 76300 95500 104000 122000 181000 203000 321000 424000
2022-09-18 05:00 4.18 104000 627000 (2008) 61600 (1955) 165000 71600 76300 95500 104000 122000 181000 203000 321000 424000
2022-09-18 04:30 4.17 104000 627000 (2008) 61600 (1955) 165000 71600 76300 95500 104000 122000 181000 203000 321000 424000
2022-09-18 04:00 4.21 104000 627000 (2008) 61600 (1955) 165000 71600 76300 95500 104000 122000 181000 203000 321000 424000
2022-09-18 03:30 4.22 104000 627000 (2008) 61600 (1955) 165000 71600 76300 95500 104000 122000 181000 203000 321000 424000
2022-09-18 03:00 4.22 104000 627000 (2008) 61600 (1955) 165000 71600 76300 95500 104000 122000 181000 203000 321000 424000
2022-09-18 02:30 4.24 105000 627000 (2008) 61600 (1955) 165000 71600 76300 95500 104000 122000 181000 203000 321000 424000
2022-09-18 02:00 4.25 105000 627000 (2008) 61600 (1955) 165000 71600 76300 95500 104000 122000 181000 203000 321000 424000
2022-09-18 01:30 4.25 105000 627000 (2008) 61600 (1955) 165000 71600 76300 95500 104000 122000 181000 203000 321000 424000
2022-09-18 01:00 4.26 105000 627000 (2008) 61600 (1955) 165000 71600 76300 95500 104000 122000 181000 203000 321000 424000
2022-09-18 00:30 4.27 105000 627000 (2008) 61600 (1955) 165000 71600 76300 95500 104000 122000 181000 203000 321000 424000
2022-09-18 00:00 4.26 105000 627000 (2008) 61600 (1955) 165000 71600 76300 95500 104000 122000 181000 203000 321000 424000

A total of 383 rows are displayed for years 1942 through 2021.